sensor_id;sensor_type;location;lat;lon;timestamp;P1;durP1;ratioP1;P2;durP2;ratioP2
7753;SDS011;3921;42.266;23.122;2022-09-13T00:19:04;7.50;;;6.70;;
7753;SDS011;3921;42.266;23.122;2022-09-13T00:26:42;6.33;;;5.73;;
7753;SDS011;3921;42.266;23.122;2022-09-13T00:29:16;7.07;;;6.00;;
7753;SDS011;3921;42.266;23.122;2022-09-13T00:31:44;6.50;;;5.90;;
7753;SDS011;3921;42.266;23.122;2022-09-13T00:34:15;6.97;;;5.50;;
7753;SDS011;3921;42.266;23.122;2022-09-13T00:36:47;6.37;;;5.77;;
7753;SDS011;3921;42.266;23.122;2022-09-13T00:39:17;6.50;;;6.00;;
7753;SDS011;3921;42.266;23.122;2022-09-13T00:41:54;7.83;;;6.13;;
7753;SDS011;3921;42.266;23.122;2022-09-13T00:47:56;9.00;;;6.53;;
7753;SDS011;3921;42.266;23.122;2022-09-13T00:53:04;6.93;;;6.23;;
7753;SDS011;3921;42.266;23.122;2022-09-13T00:55:45;5.97;;;5.43;;
7753;SDS011;3921;42.266;23.122;2022-09-13T01:01:02;6.07;;;5.57;;
7753;SDS011;3921;42.266;23.122;2022-09-13T01:03:36;6.83;;;6.20;;
7753;SDS011;3921;42.266;23.122;2022-09-13T01:06:17;6.70;;;6.00;;
7753;SDS011;3921;42.266;23.122;2022-09-13T01:09:00;6.33;;;5.73;;
7753;SDS011;3921;42.266;23.122;2022-09-13T01:14:53;7.20;;;6.43;;
7753;SDS011;3921;42.266;23.122;2022-09-13T01:17:46;7.27;;;6.50;;
7753;SDS011;3921;42.266;23.122;2022-09-13T01:21:09;6.53;;;5.90;;
7753;SDS011;3921;42.266;23.122;2022-09-13T01:24:33;6.10;;;5.60;;
7753;SDS011;3921;42.266;23.122;2022-09-13T01:35:33;6.50;;;5.90;;
7753;SDS011;3921;42.266;23.122;2022-09-13T01:38:16;6.10;;;5.60;;
7753;SDS011;3921;42.266;23.122;2022-09-13T01:41:04;6.30;;;5.70;;
7753;SDS011;3921;42.266;23.122;2022-09-13T01:43:48;6.13;;;5.63;;
7753;SDS011;3921;42.266;23.122;2022-09-13T01:46:25;6.50;;;5.93;;
7753;SDS011;3921;42.266;23.122;2022-09-13T01:49:06;6.50;;;6.00;;
7753;SDS011;3921;42.266;23.122;2022-09-13T01:51:55;6.40;;;5.90;;
7753;SDS011;3921;42.266;23.122;2022-09-13T01:54:37;6.33;;;5.57;;
7753;SDS011;3921;42.266;23.122;2022-09-13T01:57:16;5.90;;;5.40;;
7753;SDS011;3921;42.266;23.122;2022-09-13T02:26:09;6.40;;;5.80;;
7753;SDS011;3921;42.266;23.122;2022-09-13T03:05:14;6.80;;;6.20;;
7753;SDS011;3921;42.266;23.122;2022-09-13T03:07:42;6.83;;;6.23;;
7753;SDS011;3921;42.266;23.122;2022-09-13T04:05:49;6.70;;;6.10;;
7753;SDS011;3921;42.266;23.122;2022-09-13T04:08:16;7.50;;;6.37;;
7753;SDS011;3921;42.266;23.122;2022-09-13T04:47:37;7.13;;;5.93;;
7753;SDS011;3921;42.266;23.122;2022-09-13T04:50:09;8.33;;;6.07;;
7753;SDS011;3921;42.266;23.122;2022-09-13T04:52:36;6.47;;;5.87;;
7753;SDS011;3921;42.266;23.122;2022-09-13T04:55:06;6.30;;;5.70;;
7753;SDS011;3921;42.266;23.122;2022-09-13T04:57:34;8.60;;;6.57;;
7753;SDS011;3921;42.266;23.122;2022-09-13T05:00:02;9.10;;;7.40;;
7753;SDS011;3921;42.266;23.122;2022-09-13T05:02:33;10.07;;;7.53;;
7753;SDS011;3921;42.266;23.122;2022-09-13T05:05:10;7.03;;;6.33;;
7753;SDS011;3921;42.266;23.122;2022-09-13T05:07:39;7.50;;;6.07;;
7753;SDS011;3921;42.266;23.122;2022-09-13T05:10:16;8.80;;;5.77;;
7753;SDS011;3921;42.266;23.122;2022-09-13T05:12:45;7.17;;;6.47;;
7753;SDS011;3921;42.266;23.122;2022-09-13T05:15:16;6.67;;;5.93;;
7753;SDS011;3921;42.266;23.122;2022-09-13T05:17:46;6.70;;;6.10;;
7753;SDS011;3921;42.266;23.122;2022-09-13T05:20:17;7.07;;;6.37;;
7753;SDS011;3921;42.266;23.122;2022-09-13T05:22:46;6.70;;;6.00;;
7753;SDS011;3921;42.266;23.122;2022-09-13T05:25:25;8.13;;;6.60;;
7753;SDS011;3921;42.266;23.122;2022-09-13T05:27:53;7.03;;;6.43;;
7753;SDS011;3921;42.266;23.122;2022-09-13T05:30:20;7.20;;;6.50;;
7753;SDS011;3921;42.266;23.122;2022-09-13T05:33:01;10.07;;;7.40;;
7753;SDS011;3921;42.266;23.122;2022-09-13T05:35:29;7.53;;;6.87;;
7753;SDS011;3921;42.266;23.122;2022-09-13T05:37:56;8.57;;;7.40;;
7753;SDS011;3921;42.266;23.122;2022-09-13T05:40:23;7.70;;;7.00;;
7753;SDS011;3921;42.266;23.122;2022-09-13T05:42:51;8.07;;;7.03;;
7753;SDS011;3921;42.266;23.122;2022-09-13T05:45:19;8.73;;;7.03;;
7753;SDS011;3921;42.266;23.122;2022-09-13T05:47:48;9.03;;;7.57;;
7753;SDS011;3921;42.266;23.122;2022-09-13T05:50:18;11.30;;;7.40;;
7753;SDS011;3921;42.266;23.122;2022-09-13T05:52:50;8.40;;;7.43;;
7753;SDS011;3921;42.266;23.122;2022-09-13T05:55:17;9.17;;;7.33;;
7753;SDS011;3921;42.266;23.122;2022-09-13T05:57:46;7.97;;;7.20;;
7753;SDS011;3921;42.266;23.122;2022-09-13T06:00:14;9.20;;;7.63;;
7753;SDS011;3921;42.266;23.122;2022-09-13T06:02:42;10.13;;;8.07;;
7753;SDS011;3921;42.266;23.122;2022-09-13T06:05:09;10.23;;;6.87;;
7753;SDS011;3921;42.266;23.122;2022-09-13T06:07:39;8.27;;;7.37;;
7753;SDS011;3921;42.266;23.122;2022-09-13T06:10:08;7.70;;;6.90;;
7753;SDS011;3921;42.266;23.122;2022-09-13T06:12:39;13.27;;;7.63;;
7753;SDS011;3921;42.266;23.122;2022-09-13T06:15:07;8.27;;;7.33;;
7753;SDS011;3921;42.266;23.122;2022-09-13T06:17:35;13.07;;;10.43;;
7753;SDS011;3921;42.266;23.122;2022-09-13T06:20:04;10.17;;;9.17;;
7753;SDS011;3921;42.266;23.122;2022-09-13T06:22:33;8.70;;;7.87;;
7753;SDS011;3921;42.266;23.122;2022-09-13T06:25:03;11.20;;;8.17;;
7753;SDS011;3921;42.266;23.122;2022-09-13T06:27:31;9.27;;;7.47;;
7753;SDS011;3921;42.266;23.122;2022-09-13T06:29:58;7.83;;;6.90;;
7753;SDS011;3921;42.266;23.122;2022-09-13T06:32:26;7.63;;;6.80;;
7753;SDS011;3921;42.266;23.122;2022-09-13T06:34:55;7.70;;;6.97;;
7753;SDS011;3921;42.266;23.122;2022-09-13T06:37:24;9.20;;;7.00;;
7753;SDS011;3921;42.266;23.122;2022-09-13T06:39:53;8.63;;;7.03;;
7753;SDS011;3921;42.266;23.122;2022-09-13T06:42:22;9.40;;;7.43;;
7753;SDS011;3921;42.266;23.122;2022-09-13T06:44:52;8.77;;;7.33;;
7753;SDS011;3921;42.266;23.122;2022-09-13T06:47:24;10.53;;;8.50;;
7753;SDS011;3921;42.266;23.122;2022-09-13T06:49:52;8.83;;;8.03;;
7753;SDS011;3921;42.266;23.122;2022-09-13T06:52:23;8.80;;;7.90;;
7753;SDS011;3921;42.266;23.122;2022-09-13T06:54:50;11.80;;;8.13;;
7753;SDS011;3921;42.266;23.122;2022-09-13T06:57:17;8.60;;;7.37;;
7753;SDS011;3921;42.266;23.122;2022-09-13T06:59:46;7.90;;;6.97;;
7753;SDS011;3921;42.266;23.122;2022-09-13T07:02:14;8.40;;;7.53;;
7753;SDS011;3921;42.266;23.122;2022-09-13T07:04:41;9.73;;;7.03;;
7753;SDS011;3921;42.266;23.122;2022-09-13T07:07:08;7.67;;;6.87;;
7753;SDS011;3921;42.266;23.122;2022-09-13T07:09:36;7.60;;;6.90;;
7753;SDS011;3921;42.266;23.122;2022-09-13T07:12:04;7.73;;;6.97;;
7753;SDS011;3921;42.266;23.122;2022-09-13T07:14:33;10.03;;;7.50;;
7753;SDS011;3921;42.266;23.122;2022-09-13T07:17:02;7.70;;;6.77;;
7753;SDS011;3921;42.266;23.122;2022-09-13T07:19:33;10.33;;;7.03;;
7753;SDS011;3921;42.266;23.122;2022-09-13T07:22:01;6.53;;;5.50;;
7753;SDS011;3921;42.266;23.122;2022-09-13T07:24:29;6.33;;;5.73;;
7753;SDS011;3921;42.266;23.122;2022-09-13T07:26:59;6.80;;;5.40;;
7753;SDS011;3921;42.266;23.122;2022-09-13T07:29:26;5.53;;;5.03;;
7753;SDS011;3921;42.266;23.122;2022-09-13T07:31:55;7.43;;;4.40;;
7753;SDS011;3921;42.266;23.122;2022-09-13T07:34:24;10.73;;;4.60;;
7753;SDS011;3921;42.266;23.122;2022-09-13T07:40:16;5.67;;;4.00;;
7753;SDS011;3921;42.266;23.122;2022-09-13T07:42:48;4.83;;;3.97;;
7753;SDS011;3921;42.266;23.122;2022-09-13T07:51:02;4.20;;;3.50;;
7753;SDS011;3921;42.266;23.122;2022-09-13T07:56:17;4.93;;;3.70;;
7753;SDS011;3921;42.266;23.122;2022-09-13T07:58:58;4.13;;;3.73;;
7753;SDS011;3921;42.266;23.122;2022-09-13T08:01:39;4.00;;;3.57;;
7753;SDS011;3921;42.266;23.122;2022-09-13T08:04:15;7.17;;;3.43;;
7753;SDS011;3921;42.266;23.122;2022-09-13T08:06:52;4.27;;;3.50;;
7753;SDS011;3921;42.266;23.122;2022-09-13T08:09:29;4.37;;;3.27;;
7753;SDS011;3921;42.266;23.122;2022-09-13T08:12:13;4.63;;;3.70;;
7753;SDS011;3921;42.266;23.122;2022-09-13T08:14:51;5.43;;;3.23;;
7753;SDS011;3921;42.266;23.122;2022-09-13T08:17:33;3.37;;;3.10;;
7753;SDS011;3921;42.266;23.122;2022-09-13T08:20:07;3.77;;;3.23;;
7753;SDS011;3921;42.266;23.122;2022-09-13T08:25:45;3.43;;;3.23;;
7753;SDS011;3921;42.266;23.122;2022-09-13T08:28:21;4.30;;;3.10;;
7753;SDS011;3921;42.266;23.122;2022-09-13T08:30:52;4.10;;;3.70;;
7753;SDS011;3921;42.266;23.122;2022-09-13T08:33:43;3.87;;;3.50;;
7753;SDS011;3921;42.266;23.122;2022-09-13T08:36:20;4.10;;;3.70;;
7753;SDS011;3921;42.266;23.122;2022-09-13T08:39:11;5.07;;;3.20;;
7753;SDS011;3921;42.266;23.122;2022-09-13T08:41:48;3.70;;;3.13;;
7753;SDS011;3921;42.266;23.122;2022-09-13T08:44:55;5.27;;;3.50;;
7753;SDS011;3921;42.266;23.122;2022-09-13T08:47:44;3.30;;;3.00;;
7753;SDS011;3921;42.266;23.122;2022-09-13T08:53:38;3.20;;;2.73;;
7753;SDS011;3921;42.266;23.122;2022-09-13T09:13:31;4.17;;;3.77;;
7753;SDS011;3921;42.266;23.122;2022-09-13T09:16:11;3.30;;;2.97;;
7753;SDS011;3921;42.266;23.122;2022-09-13T09:19:19;3.23;;;2.93;;
7753;SDS011;3921;42.266;23.122;2022-09-13T12:00:13;3.83;;;2.07;;
7753;SDS011;3921;42.266;23.122;2022-09-13T12:03:03;2.47;;;2.23;;
7753;SDS011;3921;42.266;23.122;2022-09-13T12:05:39;2.60;;;2.17;;
7753;SDS011;3921;42.266;23.122;2022-09-13T12:08:11;2.20;;;2.10;;
7753;SDS011;3921;42.266;23.122;2022-09-13T12:10:45;2.07;;;1.90;;
7753;SDS011;3921;42.266;23.122;2022-09-13T12:13:20;2.17;;;2.07;;
7753;SDS011;3921;42.266;23.122;2022-09-13T12:15:51;2.90;;;2.00;;
7753;SDS011;3921;42.266;23.122;2022-09-13T12:18:23;4.37;;;2.27;;
7753;SDS011;3921;42.266;23.122;2022-09-13T12:21:02;2.50;;;2.30;;
7753;SDS011;3921;42.266;23.122;2022-09-13T12:23:35;2.80;;;2.30;;
7753;SDS011;3921;42.266;23.122;2022-09-13T12:26:12;4.93;;;2.20;;
7753;SDS011;3921;42.266;23.122;2022-09-13T12:28:47;2.43;;;1.87;;
7753;SDS011;3921;42.266;23.122;2022-09-13T12:31:21;2.10;;;1.90;;
7753;SDS011;3921;42.266;23.122;2022-09-13T12:33:50;2.43;;;2.20;;
7753;SDS011;3921;42.266;23.122;2022-09-13T12:36:31;2.20;;;2.10;;
7753;SDS011;3921;42.266;23.122;2022-09-13T12:39:20;1.90;;;1.80;;
7753;SDS011;3921;42.266;23.122;2022-09-13T12:45:07;3.03;;;2.13;;
7753;SDS011;3921;42.266;23.122;2022-09-13T12:47:53;2.73;;;2.17;;
7753;SDS011;3921;42.266;23.122;2022-09-13T12:50:44;2.23;;;2.13;;
7753;SDS011;3921;42.266;23.122;2022-09-13T12:53:26;2.13;;;1.93;;
7753;SDS011;3921;42.266;23.122;2022-09-13T12:56:17;2.27;;;2.07;;
7753;SDS011;3921;42.266;23.122;2022-09-13T12:59:09;2.50;;;2.30;;
7753;SDS011;3921;42.266;23.122;2022-09-13T13:01:50;2.43;;;2.03;;
7753;SDS011;3921;42.266;23.122;2022-09-13T13:04:19;2.10;;;1.90;;
7753;SDS011;3921;42.266;23.122;2022-09-13T13:06:50;2.00;;;1.90;;
7753;SDS011;3921;42.266;23.122;2022-09-13T13:09:21;2.10;;;2.00;;
7753;SDS011;3921;42.266;23.122;2022-09-13T13:11:53;1.83;;;1.73;;
7753;SDS011;3921;42.266;23.122;2022-09-13T13:14:29;2.27;;;2.03;;
7753;SDS011;3921;42.266;23.122;2022-09-13T13:19:53;2.80;;;2.60;;
7753;SDS011;3921;42.266;23.122;2022-09-13T13:31:40;2.13;;;2.03;;
7753;SDS011;3921;42.266;23.122;2022-09-13T13:34:37;2.90;;;2.67;;
7753;SDS011;3921;42.266;23.122;2022-09-13T13:43:34;2.60;;;2.40;;
7753;SDS011;3921;42.266;23.122;2022-09-13T13:53:51;4.13;;;2.50;;
7753;SDS011;3921;42.266;23.122;2022-09-13T13:56:46;2.60;;;2.37;;
7753;SDS011;3921;42.266;23.122;2022-09-13T13:59:24;5.07;;;2.50;;
7753;SDS011;3921;42.266;23.122;2022-09-13T14:01:58;2.60;;;2.40;;
7753;SDS011;3921;42.266;23.122;2022-09-13T14:07:04;2.97;;;2.50;;
7753;SDS011;3921;42.266;23.122;2022-09-13T14:09:43;2.93;;;2.27;;
7753;SDS011;3921;42.266;23.122;2022-09-13T14:12:25;3.77;;;2.50;;
7753;SDS011;3921;42.266;23.122;2022-09-13T14:15:06;2.93;;;2.50;;
7753;SDS011;3921;42.266;23.122;2022-09-13T14:43:45;3.27;;;2.90;;
7753;SDS011;3921;42.266;23.122;2022-09-13T14:47:11;3.20;;;3.00;;
7753;SDS011;3921;42.266;23.122;2022-09-13T14:49:58;3.23;;;2.93;;
7753;SDS011;3921;42.266;23.122;2022-09-13T14:53:02;2.90;;;2.70;;
7753;SDS011;3921;42.266;23.122;2022-09-13T15:09:54;4.17;;;3.43;;
7753;SDS011;3921;42.266;23.122;2022-09-13T15:12:32;4.07;;;3.70;;
7753;SDS011;3921;42.266;23.122;2022-09-13T15:15:34;4.37;;;3.67;;
7753;SDS011;3921;42.266;23.122;2022-09-13T15:20:45;3.97;;;3.57;;
7753;SDS011;3921;42.266;23.122;2022-09-13T15:23:17;4.00;;;3.33;;
7753;SDS011;3921;42.266;23.122;2022-09-13T15:25:50;3.90;;;3.60;;
7753;SDS011;3921;42.266;23.122;2022-09-13T15:28:20;3.83;;;3.53;;
7753;SDS011;3921;42.266;23.122;2022-09-13T15:30:52;3.83;;;3.53;;
7753;SDS011;3921;42.266;23.122;2022-09-13T15:33:22;3.97;;;3.57;;
7753;SDS011;3921;42.266;23.122;2022-09-13T15:38:56;3.40;;;3.20;;
7753;SDS011;3921;42.266;23.122;2022-09-13T15:41:29;3.20;;;2.93;;
7753;SDS011;3921;42.266;23.122;2022-09-13T15:43:59;3.53;;;3.33;;
7753;SDS011;3921;42.266;23.122;2022-09-13T15:46:27;3.30;;;2.80;;
7753;SDS011;3921;42.266;23.122;2022-09-13T15:48:55;4.53;;;3.07;;
7753;SDS011;3921;42.266;23.122;2022-09-13T15:51:24;3.17;;;2.90;;
7753;SDS011;3921;42.266;23.122;2022-09-13T15:53:52;3.20;;;3.00;;
7753;SDS011;3921;42.266;23.122;2022-09-13T15:56:24;3.23;;;2.93;;
7753;SDS011;3921;42.266;23.122;2022-09-13T16:06:42;3.40;;;3.20;;
7753;SDS011;3921;42.266;23.122;2022-09-13T16:09:10;3.63;;;2.97;;
7753;SDS011;3921;42.266;23.122;2022-09-13T16:11:46;4.00;;;3.70;;
7753;SDS011;3921;42.266;23.122;2022-09-13T16:14:14;3.40;;;3.10;;
7753;SDS011;3921;42.266;23.122;2022-09-13T16:19:17;3.60;;;3.30;;
7753;SDS011;3921;42.266;23.122;2022-09-13T16:21:46;5.37;;;3.33;;
7753;SDS011;3921;42.266;23.122;2022-09-13T16:24:14;3.40;;;3.10;;
7753;SDS011;3921;42.266;23.122;2022-09-13T16:26:41;3.73;;;3.30;;
7753;SDS011;3921;42.266;23.122;2022-09-13T16:31:46;4.37;;;3.50;;
7753;SDS011;3921;42.266;23.122;2022-09-13T16:34:13;6.33;;;3.80;;
7753;SDS011;3921;42.266;23.122;2022-09-13T16:36:40;4.07;;;3.73;;
7753;SDS011;3921;42.266;23.122;2022-09-13T16:39:08;5.73;;;4.03;;
7753;SDS011;3921;42.266;23.122;2022-09-13T16:44:19;5.00;;;4.50;;
7753;SDS011;3921;42.266;23.122;2022-09-13T16:46:48;6.90;;;4.50;;
7753;SDS011;3921;42.266;23.122;2022-09-13T16:57:07;4.47;;;4.00;;
7753;SDS011;3921;42.266;23.122;2022-09-13T16:59:38;4.07;;;3.77;;
7753;SDS011;3921;42.266;23.122;2022-09-13T17:02:12;4.03;;;3.73;;
7753;SDS011;3921;42.266;23.122;2022-09-13T17:04:42;5.00;;;3.80;;
7753;SDS011;3921;42.266;23.122;2022-09-13T17:07:17;4.17;;;3.77;;
7753;SDS011;3921;42.266;23.122;2022-09-13T17:09:52;4.37;;;4.07;;
7753;SDS011;3921;42.266;23.122;2022-09-13T17:12:21;4.97;;;3.80;;
7753;SDS011;3921;42.266;23.122;2022-09-13T17:14:54;5.90;;;4.07;;
7753;SDS011;3921;42.266;23.122;2022-09-13T17:17:31;5.57;;;4.10;;
7753;SDS011;3921;42.266;23.122;2022-09-13T17:20:04;6.63;;;4.37;;
7753;SDS011;3921;42.266;23.122;2022-09-13T17:22:37;3.90;;;3.60;;
7753;SDS011;3921;42.266;23.122;2022-09-13T17:25:14;6.83;;;4.30;;
7753;SDS011;3921;42.266;23.122;2022-09-13T17:30:23;4.03;;;3.70;;
7753;SDS011;3921;42.266;23.122;2022-09-13T17:33:05;4.00;;;3.70;;
7753;SDS011;3921;42.266;23.122;2022-09-13T17:36:09;5.00;;;3.83;;
7753;SDS011;3921;42.266;23.122;2022-09-13T17:38:44;4.43;;;3.80;;
7753;SDS011;3921;42.266;23.122;2022-09-13T17:41:14;4.10;;;3.77;;
7753;SDS011;3921;42.266;23.122;2022-09-13T17:43:51;4.50;;;3.93;;
7753;SDS011;3921;42.266;23.122;2022-09-13T17:46:34;4.50;;;4.20;;
7753;SDS011;3921;42.266;23.122;2022-09-13T17:49:10;4.93;;;4.03;;
7753;SDS011;3921;42.266;23.122;2022-09-13T17:51:40;5.10;;;4.17;;
7753;SDS011;3921;42.266;23.122;2022-09-13T17:54:26;7.63;;;5.33;;
7753;SDS011;3921;42.266;23.122;2022-09-13T17:57:10;6.07;;;5.47;;
7753;SDS011;3921;42.266;23.122;2022-09-13T18:02:38;8.40;;;5.47;;
7753;SDS011;3921;42.266;23.122;2022-09-13T18:05:43;5.90;;;5.30;;
7753;SDS011;3921;42.266;23.122;2022-09-13T18:11:56;5.93;;;5.33;;
7753;SDS011;3921;42.266;23.122;2022-09-13T18:14:47;6.63;;;5.67;;
7753;SDS011;3921;42.266;23.122;2022-09-13T18:17:16;7.97;;;5.60;;
7753;SDS011;3921;42.266;23.122;2022-09-13T18:19:44;8.27;;;5.30;;
7753;SDS011;3921;42.266;23.122;2022-09-13T18:22:13;6.10;;;5.50;;
7753;SDS011;3921;42.266;23.122;2022-09-13T18:24:46;9.43;;;4.80;;
7753;SDS011;3921;42.266;23.122;2022-09-13T18:27:14;6.60;;;5.23;;
7753;SDS011;3921;42.266;23.122;2022-09-13T18:29:41;5.97;;;5.37;;
7753;SDS011;3921;42.266;23.122;2022-09-13T18:32:08;6.90;;;5.07;;
7753;SDS011;3921;42.266;23.122;2022-09-13T18:34:37;6.87;;;5.50;;
7753;SDS011;3921;42.266;23.122;2022-09-13T18:37:09;6.93;;;5.33;;
7753;SDS011;3921;42.266;23.122;2022-09-13T18:39:39;8.03;;;5.20;;
7753;SDS011;3921;42.266;23.122;2022-09-13T18:42:11;5.57;;;4.93;;
7753;SDS011;3921;42.266;23.122;2022-09-13T18:44:49;5.57;;;5.07;;
7753;SDS011;3921;42.266;23.122;2022-09-13T18:47:23;6.13;;;5.07;;
7753;SDS011;3921;42.266;23.122;2022-09-13T18:49:52;5.97;;;5.37;;
7753;SDS011;3921;42.266;23.122;2022-09-13T18:52:25;6.33;;;5.13;;
7753;SDS011;3921;42.266;23.122;2022-09-13T18:55:01;6.10;;;5.50;;
7753;SDS011;3921;42.266;23.122;2022-09-13T18:57:32;7.23;;;5.83;;
7753;SDS011;3921;42.266;23.122;2022-09-13T19:00:02;8.00;;;5.40;;
7753;SDS011;3921;42.266;23.122;2022-09-13T19:03:09;7.83;;;5.73;;
7753;SDS011;3921;42.266;23.122;2022-09-13T19:05:39;6.10;;;5.60;;
7753;SDS011;3921;42.266;23.122;2022-09-13T19:08:07;10.47;;;5.57;;
7753;SDS011;3921;42.266;23.122;2022-09-13T19:10:37;10.77;;;6.00;;
7753;SDS011;3921;42.266;23.122;2022-09-13T19:13:04;8.83;;;5.43;;
7753;SDS011;3921;42.266;23.122;2022-09-13T19:15:43;7.23;;;5.60;;
7753;SDS011;3921;42.266;23.122;2022-09-13T19:18:16;10.17;;;5.77;;
7753;SDS011;3921;42.266;23.122;2022-09-13T19:20:59;6.70;;;5.97;;
7753;SDS011;3921;42.266;23.122;2022-09-13T19:23:56;7.27;;;6.50;;
7753;SDS011;3921;42.266;23.122;2022-09-13T19:26:26;6.53;;;5.70;;
7753;SDS011;3921;42.266;23.122;2022-09-13T19:28:59;6.70;;;6.03;;
7753;SDS011;3921;42.266;23.122;2022-09-13T19:31:30;9.13;;;6.37;;
7753;SDS011;3921;42.266;23.122;2022-09-13T19:34:08;6.57;;;5.87;;
7753;SDS011;3921;42.266;23.122;2022-09-13T19:36:39;5.47;;;4.87;;
7753;SDS011;3921;42.266;23.122;2022-09-13T19:39:08;5.50;;;5.00;;
7753;SDS011;3921;42.266;23.122;2022-09-13T19:41:39;8.90;;;4.87;;
7753;SDS011;3921;42.266;23.122;2022-09-13T19:44:07;5.77;;;5.20;;
7753;SDS011;3921;42.266;23.122;2022-09-13T19:46:35;5.93;;;5.33;;
7753;SDS011;3921;42.266;23.122;2022-09-13T19:49:04;7.67;;;6.17;;
7753;SDS011;3921;42.266;23.122;2022-09-13T19:51:32;6.13;;;5.37;;
7753;SDS011;3921;42.266;23.122;2022-09-13T19:54:04;6.00;;;5.13;;
7753;SDS011;3921;42.266;23.122;2022-09-13T19:56:34;5.83;;;5.27;;
7753;SDS011;3921;42.266;23.122;2022-09-13T19:59:05;5.40;;;4.90;;
7753;SDS011;3921;42.266;23.122;2022-09-13T20:01:34;5.20;;;4.70;;
7753;SDS011;3921;42.266;23.122;2022-09-13T20:04:04;5.57;;;5.07;;
7753;SDS011;3921;42.266;23.122;2022-09-13T20:06:40;5.07;;;4.67;;
7753;SDS011;3921;42.266;23.122;2022-09-13T20:09:09;7.30;;;4.97;;
7753;SDS011;3921;42.266;23.122;2022-09-13T20:11:39;5.97;;;5.20;;
7753;SDS011;3921;42.266;23.122;2022-09-13T20:14:15;6.30;;;5.20;;
7753;SDS011;3921;42.266;23.122;2022-09-13T20:16:55;6.80;;;5.37;;
7753;SDS011;3921;42.266;23.122;2022-09-13T20:19:23;5.33;;;4.83;;
7753;SDS011;3921;42.266;23.122;2022-09-13T20:21:53;5.57;;;4.83;;
7753;SDS011;3921;42.266;23.122;2022-09-13T20:24:29;7.23;;;5.00;;
7753;SDS011;3921;42.266;23.122;2022-09-13T20:26:56;5.13;;;4.63;;
7753;SDS011;3921;42.266;23.122;2022-09-13T20:29:28;6.07;;;4.80;;
7753;SDS011;3921;42.266;23.122;2022-09-13T20:32:00;6.43;;;5.40;;
7753;SDS011;3921;42.266;23.122;2022-09-13T20:34:29;5.43;;;4.77;;
7753;SDS011;3921;42.266;23.122;2022-09-13T20:37:05;5.33;;;4.60;;
7753;SDS011;3921;42.266;23.122;2022-09-13T20:39:39;5.63;;;5.13;;
7753;SDS011;3921;42.266;23.122;2022-09-13T20:42:09;6.07;;;5.37;;
7753;SDS011;3921;42.266;23.122;2022-09-13T20:44:54;5.60;;;5.17;;
7753;SDS011;3921;42.266;23.122;2022-09-13T20:47:30;5.87;;;5.23;;
7753;SDS011;3921;42.266;23.122;2022-09-13T20:50:01;6.87;;;5.30;;
7753;SDS011;3921;42.266;23.122;2022-09-13T20:52:33;6.27;;;5.20;;
7753;SDS011;3921;42.266;23.122;2022-09-13T20:55:08;6.03;;;5.03;;
7753;SDS011;3921;42.266;23.122;2022-09-13T20:57:42;5.40;;;5.00;;
7753;SDS011;3921;42.266;23.122;2022-09-13T21:00:20;5.67;;;5.07;;
7753;SDS011;3921;42.266;23.122;2022-09-13T21:02:53;5.77;;;5.10;;
7753;SDS011;3921;42.266;23.122;2022-09-13T21:05:22;6.23;;;5.63;;
7753;SDS011;3921;42.266;23.122;2022-09-13T21:07:59;5.17;;;4.77;;
7753;SDS011;3921;42.266;23.122;2022-09-13T21:10:55;5.60;;;4.97;;
7753;SDS011;3921;42.266;23.122;2022-09-13T21:13:32;6.90;;;4.90;;
7753;SDS011;3921;42.266;23.122;2022-09-13T21:16:06;5.67;;;5.17;;
7753;SDS011;3921;42.266;23.122;2022-09-13T21:18:38;5.83;;;5.33;;
7753;SDS011;3921;42.266;23.122;2022-09-13T21:21:15;5.63;;;5.13;;
7753;SDS011;3921;42.266;23.122;2022-09-13T21:23:46;6.40;;;5.60;;
7753;SDS011;3921;42.266;23.122;2022-09-13T21:26:21;6.30;;;5.30;;
7753;SDS011;3921;42.266;23.122;2022-09-13T21:29:04;5.87;;;5.30;;
7753;SDS011;3921;42.266;23.122;2022-09-13T21:31:33;5.47;;;4.97;;
7753;SDS011;3921;42.266;23.122;2022-09-13T21:34:12;5.80;;;5.30;;
7753;SDS011;3921;42.266;23.122;2022-09-13T21:36:49;5.23;;;4.83;;
7753;SDS011;3921;42.266;23.122;2022-09-13T21:39:21;7.10;;;5.10;;
7753;SDS011;3921;42.266;23.122;2022-09-13T21:41:50;5.40;;;4.90;;
7753;SDS011;3921;42.266;23.122;2022-09-13T21:44:22;5.60;;;5.10;;
7753;SDS011;3921;42.266;23.122;2022-09-13T21:46:53;5.50;;;4.90;;
7753;SDS011;3921;42.266;23.122;2022-09-13T21:49:25;5.47;;;4.97;;
7753;SDS011;3921;42.266;23.122;2022-09-13T21:51:59;8.27;;;5.07;;
7753;SDS011;3921;42.266;23.122;2022-09-13T21:54:32;5.80;;;5.00;;
7753;SDS011;3921;42.266;23.122;2022-09-13T21:57:06;5.47;;;4.93;;
7753;SDS011;3921;42.266;23.122;2022-09-13T21:59:34;5.57;;;4.97;;
7753;SDS011;3921;42.266;23.122;2022-09-13T22:02:06;6.27;;;5.77;;
7753;SDS011;3921;42.266;23.122;2022-09-13T22:04:38;6.37;;;5.37;;
7753;SDS011;3921;42.266;23.122;2022-09-13T22:07:09;6.83;;;5.20;;
7753;SDS011;3921;42.266;23.122;2022-09-13T22:09:38;5.90;;;5.40;;
7753;SDS011;3921;42.266;23.122;2022-09-13T22:12:09;5.87;;;5.20;;
7753;SDS011;3921;42.266;23.122;2022-09-13T22:14:43;5.30;;;4.90;;
7753;SDS011;3921;42.266;23.122;2022-09-13T22:17:17;7.93;;;5.27;;
7753;SDS011;3921;42.266;23.122;2022-09-13T22:19:48;5.63;;;5.13;;
7753;SDS011;3921;42.266;23.122;2022-09-13T22:22:17;7.07;;;5.70;;
7753;SDS011;3921;42.266;23.122;2022-09-13T22:24:53;5.40;;;5.00;;
7753;SDS011;3921;42.266;23.122;2022-09-13T22:27:26;5.80;;;5.30;;
7753;SDS011;3921;42.266;23.122;2022-09-13T22:30:05;5.67;;;5.17;;
7753;SDS011;3921;42.266;23.122;2022-09-13T22:32:36;6.00;;;5.40;;
7753;SDS011;3921;42.266;23.122;2022-09-13T22:35:04;5.97;;;5.47;;
7753;SDS011;3921;42.266;23.122;2022-09-13T22:37:33;6.27;;;5.67;;
7753;SDS011;3921;42.266;23.122;2022-09-13T22:40:05;6.13;;;5.60;;
7753;SDS011;3921;42.266;23.122;2022-09-13T22:42:33;6.60;;;5.40;;
7753;SDS011;3921;42.266;23.122;2022-09-13T22:45:00;6.63;;;5.93;;
7753;SDS011;3921;42.266;23.122;2022-09-13T22:47:32;6.00;;;5.40;;
7753;SDS011;3921;42.266;23.122;2022-09-13T22:50:02;6.03;;;5.47;;
7753;SDS011;3921;42.266;23.122;2022-09-13T22:52:37;6.07;;;5.50;;
7753;SDS011;3921;42.266;23.122;2022-09-13T22:55:09;5.90;;;5.40;;
7753;SDS011;3921;42.266;23.122;2022-09-13T22:57:51;6.20;;;5.60;;
7753;SDS011;3921;42.266;23.122;2022-09-13T23:00:18;5.57;;;5.07;;
7753;SDS011;3921;42.266;23.122;2022-09-13T23:03:01;6.00;;;5.40;;
7753;SDS011;3921;42.266;23.122;2022-09-13T23:05:34;5.90;;;5.40;;
7753;SDS011;3921;42.266;23.122;2022-09-13T23:08:03;5.60;;;5.17;;
7753;SDS011;3921;42.266;23.122;2022-09-13T23:10:30;5.70;;;5.20;;
7753;SDS011;3921;42.266;23.122;2022-09-13T23:12:58;6.33;;;5.17;;
7753;SDS011;3921;42.266;23.122;2022-09-13T23:15:27;6.07;;;5.50;;
7753;SDS011;3921;42.266;23.122;2022-09-13T23:17:54;6.37;;;5.33;;
7753;SDS011;3921;42.266;23.122;2022-09-13T23:20:25;5.77;;;5.20;;
7753;SDS011;3921;42.266;23.122;2022-09-13T23:22:59;6.10;;;5.50;;
7753;SDS011;3921;42.266;23.122;2022-09-13T23:25:36;7.07;;;5.87;;
7753;SDS011;3921;42.266;23.122;2022-09-13T23:28:12;5.63;;;4.90;;
7753;SDS011;3921;42.266;23.122;2022-09-13T23:30:39;6.00;;;5.40;;
7753;SDS011;3921;42.266;23.122;2022-09-13T23:33:10;5.97;;;5.03;;
7753;SDS011;3921;42.266;23.122;2022-09-13T23:35:37;5.73;;;5.20;;
7753;SDS011;3921;42.266;23.122;2022-09-13T23:38:09;5.80;;;5.27;;
7753;SDS011;3921;42.266;23.122;2022-09-13T23:40:37;6.23;;;5.47;;
7753;SDS011;3921;42.266;23.122;2022-09-13T23:43:07;7.67;;;5.23;;
7753;SDS011;3921;42.266;23.122;2022-09-13T23:45:37;5.73;;;5.23;;
7753;SDS011;3921;42.266;23.122;2022-09-13T23:48:13;5.77;;;4.93;;
7753;SDS011;3921;42.266;23.122;2022-09-13T23:50:57;5.33;;;4.90;;
7753;SDS011;3921;42.266;23.122;2022-09-13T23:53:37;6.47;;;5.27;;
7753;SDS011;3921;42.266;23.122;2022-09-13T23:56:19;5.60;;;5.10;;
7753;SDS011;3921;42.266;23.122;2022-09-13T23:58:49;6.30;;;5.07;;
